Date,TemperatureHighF,TemperatureAvgF,TemperatureLowF,DewpointHighF,DewpointAvgF,DewpointLowF,HumidityHigh,HumidityAvg,HumidityLow,PressureMaxIn,PressureMinIn,WindSpeedMaxMPH,WindSpeedAvgMPH,GustSpeedMaxMPH,PrecipitationSumIn
2013-1-1,55,45,39,35,33,31,76,63,46,30.26,30.18,12,1,12,0.00
2013-1-2,61,45,34,37,32,28,80,62,32,30.23,30.11,6,0,6,0.00
2013-1-3,57,45,36,38,34,30,80,66,46,30.25,30.15,6,1,10,0.00
2013-1-4,62,48,38,39,36,32,82,65,37,30.28,30.16,7,0,7,0.00
2013-1-5,57,50,43,46,42,37,84,74,59,30.25,30.06,18,1,18,0.12
2013-1-6,50,47,43,46,42,38,86,82,72,30.19,30.04,14,2,14,0.12
2013-1-7,59,48,40,46,41,36,88,77,53,30.25,30.14,12,1,12,0.01
2013-1-8,62,51,43,47,42,39,88,75,52,30.22,30.10,10,1,10,0.01
2013-1-9,56,48,43,46,41,37,86,78,68,30.14,29.98,21,1,21,0.05
2013-1-10,51,45,40,37,35,31,81,67,49,30.19,30.07,20,3,20,0.00
2013-1-11,52,44,35,40,34,30,80,69,47,30.26,30.12,25,2,25,0.02
2013-1-12,51,43,36,36,29,20,86,60,29,30.25,30.13,10,1,10,0.01
2013-1-13,50,40,31,28,24,19,79,55,30,30.26,30.16,12,1,12,0.00
2013-1-14,51,44,38,24,18,12,56,35,27,30.39,30.21,19,3,19,0.00
2013-1-15,55,44,35,30,26,22,64,51,31,30.47,30.38,11,1,11,0.00
2013-1-16,60,45,34,34,30,27,76,58,34,30.42,30.25,9,1,9,0.00
2013-1-17,67,49,36,38,33,29,77,57,30,30.26,30.13,6,0,6,0.00
2013-1-18,66,50,38,38,35,31,77,58,34,30.22,30.11,5,0,5,0.00
2013-1-19,67,51,39,40,36,32,76,58,33,30.24,30.13,5,0,5,0.00
2013-1-20,67,51,38,37,35,31,77,56,31,30.22,30.10,6,0,6,0.00
2013-1-21,68,51,37,40,34,29,73,54,27,30.17,30.06,6,0,6,0.00
2013-1-22,65,52,39,42,36,31,73,56,33,30.09,29.98,6,0,6,0.00
2013-1-23,60,54,49,48,42,38,84,66,45,30.07,29.93,12,1,12,0.04
2013-1-24,55,53,51,51,49,47,89,85,83,30.17,30.05,3,0,3,0.33
2013-1-25,66,58,54,55,52,50,88,80,65,30.17,30.03,13,1,13,0.01
2013-1-26,60,53,46,50,43,33,85,69,40,30.08,29.99,21,3,21,0.01
2013-1-27,55,49,44,40,36,28,76,63,37,30.17,30.07,16,2,16,0.00
2013-1-28,57,48,40,41,38,34,81,68,46,30.29,30.15,17,2,17,0.00
2013-1-29,57,49,40,44,39,35,82,71,49,30.35,30.25,16,2,16,0.00
2013-1-30,69,55,42,43,40,37,84,62,36,30.33,30.23,13,1,13,0.00
2013-1-31,68,53,41,44,39,34,77,62,35,30.27,30.16,11,1,11,0.00